sensor_id;sensor_type;location;lat;lon;timestamp;pressure;altitude;pressure_sealevel;temperature;humidity
11041;BME280;5573;49.592;8.662;2022-07-06T00:00:06;100468.50;;;15.68;100.00
11041;BME280;5573;49.592;8.662;2022-07-06T00:02:36;100480.41;;;15.61;100.00
11041;BME280;5573;49.592;8.662;2022-07-06T00:05:04;100478.06;;;15.53;100.00
11041;BME280;5573;49.592;8.662;2022-07-06T00:07:32;100482.03;;;15.44;100.00
11041;BME280;5573;49.592;8.662;2022-07-06T00:10:00;100478.50;;;15.37;100.00
11041;BME280;5573;49.592;8.662;2022-07-06T00:12:28;100482.84;;;15.27;100.00
11041;BME280;5573;49.592;8.662;2022-07-06T00:14:55;100486.81;;;15.19;100.00
11041;BME280;5573;49.592;8.662;2022-07-06T00:17:25;100490.38;;;15.12;100.00
11041;BME280;5573;49.592;8.662;2022-07-06T00:19:53;100495.91;;;15.05;100.00
11041;BME280;5573;49.592;8.662;2022-07-06T00:22:20;100490.38;;;14.91;100.00
11041;BME280;5573;49.592;8.662;2022-07-06T00:24:48;100490.34;;;14.83;100.00
11041;BME280;5573;49.592;8.662;2022-07-06T00:27:16;100489.97;;;14.78;100.00
11041;BME280;5573;49.592;8.662;2022-07-06T00:29:44;100506.97;;;14.73;100.00
11041;BME280;5573;49.592;8.662;2022-07-06T00:32:12;100497.06;;;14.68;100.00
11041;BME280;5573;49.592;8.662;2022-07-06T00:34:42;100501.41;;;14.62;100.00
11041;BME280;5573;49.592;8.662;2022-07-06T00:37:10;100499.41;;;14.55;100.00
11041;BME280;5573;49.592;8.662;2022-07-06T00:39:38;100496.59;;;14.52;100.00
11041;BME280;5573;49.592;8.662;2022-07-06T00:42:07;100506.47;;;14.46;100.00
11041;BME280;5573;49.592;8.662;2022-07-06T00:44:35;100504.88;;;14.41;100.00
11041;BME280;5573;49.592;8.662;2022-07-06T00:47:03;100507.66;;;14.34;100.00
11041;BME280;5573;49.592;8.662;2022-07-06T00:49:32;100506.41;;;14.31;100.00
11041;BME280;5573;49.592;8.662;2022-07-06T00:52:21;100502.44;;;14.25;100.00
11041;BME280;5573;49.592;8.662;2022-07-06T00:54:48;100498.09;;;14.17;100.00
11041;BME280;5573;49.592;8.662;2022-07-06T00:57:17;100498.84;;;14.14;100.00
11041;BME280;5573;49.592;8.662;2022-07-06T00:59:45;100494.09;;;14.07;100.00
11041;BME280;5573;49.592;8.662;2022-07-06T01:02:13;100499.59;;;14.03;100.00
11041;BME280;5573;49.592;8.662;2022-07-06T01:04:41;100492.06;;;13.97;100.00
11041;BME280;5573;49.592;8.662;2022-07-06T01:07:10;100491.28;;;13.96;100.00
11041;BME280;5573;49.592;8.662;2022-07-06T01:09:39;100505.50;;;13.95;100.00
11041;BME280;5573;49.592;8.662;2022-07-06T01:12:07;100494.00;;;13.89;100.00
11041;BME280;5573;49.592;8.662;2022-07-06T01:14:36;100504.69;;;13.91;100.00
11041;BME280;5573;49.592;8.662;2022-07-06T01:17:06;100498.75;;;13.85;100.00
11041;BME280;5573;49.592;8.662;2022-07-06T01:19:35;100503.06;;;13.79;100.00
11041;BME280;5573;49.592;8.662;2022-07-06T01:22:04;100506.19;;;13.77;100.00
11041;BME280;5573;49.592;8.662;2022-07-06T01:24:34;100507.72;;;13.71;100.00
11041;BME280;5573;49.592;8.662;2022-07-06T01:27:03;100506.91;;;13.67;100.00
11041;BME280;5573;49.592;8.662;2022-07-06T01:29:31;100500.19;;;13.65;100.00
11041;BME280;5573;49.592;8.662;2022-07-06T01:32:00;100496.63;;;13.60;100.00
11041;BME280;5573;49.592;8.662;2022-07-06T01:34:28;100493.06;;;13.60;100.00
11041;BME280;5573;49.592;8.662;2022-07-06T01:36:56;100494.22;;;13.59;100.00
11041;BME280;5573;49.592;8.662;2022-07-06T01:39:25;100499.72;;;13.55;100.00
11041;BME280;5573;49.592;8.662;2022-07-06T01:41:53;100495.34;;;13.51;100.00
11041;BME280;5573;49.592;8.662;2022-07-06T01:44:20;100489.38;;;13.41;100.00
11041;BME280;5573;49.592;8.662;2022-07-06T01:46:48;100496.47;;;13.39;100.00
11041;BME280;5573;49.592;8.662;2022-07-06T01:49:16;100497.25;;;13.39;100.00
11041;BME280;5573;49.592;8.662;2022-07-06T01:51:44;100493.31;;;13.37;100.00
11041;BME280;5573;49.592;8.662;2022-07-06T01:54:13;100497.19;;;13.32;100.00
11041;BME280;5573;49.592;8.662;2022-07-06T01:56:42;100497.97;;;13.29;100.00
11041;BME280;5573;49.592;8.662;2022-07-06T01:59:10;100498.75;;;13.30;100.00
11041;BME280;5573;49.592;8.662;2022-07-06T02:01:38;100493.63;;;13.28;100.00
11041;BME280;5573;49.592;8.662;2022-07-06T02:04:06;100489.63;;;13.22;100.00
11041;BME280;5573;49.592;8.662;2022-07-06T02:06:34;100488.44;;;13.23;100.00
11041;BME280;5573;49.592;8.662;2022-07-06T02:09:03;100493.16;;;13.22;100.00
11041;BME280;5573;49.592;8.662;2022-07-06T02:11:32;100491.56;;;13.21;100.00
11041;BME280;5573;49.592;8.662;2022-07-06T02:14:02;100501.03;;;13.20;100.00
11041;BME280;5573;49.592;8.662;2022-07-06T02:16:29;100494.69;;;13.16;100.00
11041;BME280;5573;49.592;8.662;2022-07-06T02:18:57;100497.88;;;13.18;100.00
11041;BME280;5573;49.592;8.662;2022-07-06T02:21:27;100487.94;;;13.10;100.00
11041;BME280;5573;49.592;8.662;2022-07-06T02:23:55;100499.81;;;13.14;100.00
11041;BME280;5573;49.592;8.662;2022-07-06T02:26:23;100498.63;;;13.15;100.00
11041;BME280;5573;49.592;8.662;2022-07-06T02:28:51;100497.03;;;13.14;100.00
11041;BME280;5573;49.592;8.662;2022-07-06T02:31:21;100508.88;;;13.15;100.00
11041;BME280;5573;49.592;8.662;2022-07-06T02:33:49;100516.00;;;13.16;100.00
11041;BME280;5573;49.592;8.662;2022-07-06T02:36:17;100518.38;;;13.17;100.00
11041;BME280;5573;49.592;8.662;2022-07-06T02:38:45;100519.19;;;13.21;100.00
11041;BME280;5573;49.592;8.662;2022-07-06T02:41:13;100509.66;;;13.15;100.00
11041;BME280;5573;49.592;8.662;2022-07-06T02:43:41;100520.41;;;13.24;100.00
11041;BME280;5573;49.592;8.662;2022-07-06T02:46:08;100514.44;;;13.18;100.00
11041;BME280;5573;49.592;8.662;2022-07-06T02:48:38;100519.94;;;13.15;100.00
11041;BME280;5573;49.592;8.662;2022-07-06T02:51:06;100515.13;;;13.08;100.00
11041;BME280;5573;49.592;8.662;2022-07-06T02:53:34;100511.19;;;13.06;100.00
11041;BME280;5573;49.592;8.662;2022-07-06T02:56:02;100513.13;;;13.01;100.00
11041;BME280;5573;49.592;8.662;2022-07-06T02:58:32;100519.38;;;12.98;100.00
11041;BME280;5573;49.592;8.662;2022-07-06T03:01:00;100529.22;;;12.96;100.00
11041;BME280;5573;49.592;8.662;2022-07-06T03:03:27;100500.63;;;12.74;100.00
11041;BME280;5573;49.592;8.662;2022-07-06T03:05:58;100527.16;;;12.86;100.00
11041;BME280;5573;49.592;8.662;2022-07-06T03:08:28;100524.03;;;12.87;100.00
11041;BME280;5573;49.592;8.662;2022-07-06T03:10:56;100533.13;;;12.91;100.00
11041;BME280;5573;49.592;8.662;2022-07-06T03:13:24;100539.94;;;13.01;100.00
11041;BME280;5573;49.592;8.662;2022-07-06T03:15:53;100547.53;;;13.11;100.00
11041;BME280;5573;49.592;8.662;2022-07-06T03:18:21;100548.34;;;13.15;100.00
11041;BME280;5573;49.592;8.662;2022-07-06T03:20:50;100549.94;;;13.16;100.00
11041;BME280;5573;49.592;8.662;2022-07-06T03:23:20;100552.75;;;13.20;100.00
11041;BME280;5573;49.592;8.662;2022-07-06T03:25:48;100553.53;;;13.20;100.00
11041;BME280;5573;49.592;8.662;2022-07-06T03:28:16;100546.03;;;13.21;100.00
11041;BME280;5573;49.592;8.662;2022-07-06T03:30:44;100540.16;;;13.26;100.00
11041;BME280;5573;49.592;8.662;2022-07-06T03:33:12;100536.28;;;13.31;100.00
11041;BME280;5573;49.592;8.662;2022-07-06T03:35:40;100540.66;;;13.35;100.00
11041;BME280;5573;49.592;8.662;2022-07-06T03:38:09;100549.00;;;13.39;100.00
11041;BME280;5573;49.592;8.662;2022-07-06T03:40:41;100547.78;;;13.40;100.00
11041;BME280;5573;49.592;8.662;2022-07-06T03:43:09;100539.88;;;13.35;100.00
11041;BME280;5573;49.592;8.662;2022-07-06T03:45:37;100549.00;;;13.42;100.00
11041;BME280;5573;49.592;8.662;2022-07-06T03:48:05;100554.53;;;13.42;100.00
11041;BME280;5573;49.592;8.662;2022-07-06T03:50:36;100557.28;;;13.39;100.00
11041;BME280;5573;49.592;8.662;2022-07-06T03:53:04;100559.25;;;13.42;100.00
11041;BME280;5573;49.592;8.662;2022-07-06T03:55:32;100561.25;;;13.41;100.00
11041;BME280;5573;49.592;8.662;2022-07-06T03:58:06;100563.63;;;13.43;100.00
11041;BME280;5573;49.592;8.662;2022-07-06T04:00:36;100566.81;;;13.45;100.00
11041;BME280;5573;49.592;8.662;2022-07-06T04:03:09;100564.50;;;13.54;100.00
11041;BME280;5573;49.592;8.662;2022-07-06T04:05:42;100566.47;;;13.57;100.00
11041;BME280;5573;49.592;8.662;2022-07-06T04:08:11;100563.72;;;13.57;100.00
11041;BME280;5573;49.592;8.662;2022-07-06T04:10:45;100559.75;;;13.55;100.00
11041;BME280;5573;49.592;8.662;2022-07-06T04:13:15;100557.84;;;13.62;100.00
11041;BME280;5573;49.592;8.662;2022-07-06T04:15:43;100563.38;;;13.62;100.00
11041;BME280;5573;49.592;8.662;2022-07-06T04:18:11;100570.13;;;13.69;100.00
11041;BME280;5573;49.592;8.662;2022-07-06T04:20:45;100567.72;;;13.63;100.00
11041;BME280;5573;49.592;8.662;2022-07-06T04:23:13;100570.13;;;13.72;100.00
11041;BME280;5573;49.592;8.662;2022-07-06T04:25:41;100569.72;;;13.70;100.00
11041;BME280;5573;49.592;8.662;2022-07-06T04:28:10;100584.00;;;13.76;100.00
11041;BME280;5573;49.592;8.662;2022-07-06T04:30:39;100585.19;;;13.75;100.00
11041;BME280;5573;49.592;8.662;2022-07-06T04:33:11;100589.91;;;13.71;100.00
11041;BME280;5573;49.592;8.662;2022-07-06T04:35:40;100585.59;;;13.80;100.00
11041;BME280;5573;49.592;8.662;2022-07-06T04:38:08;100589.97;;;13.81;100.00
11041;BME280;5573;49.592;8.662;2022-07-06T04:40:36;100589.25;;;13.92;100.00
11041;BME280;5573;49.592;8.662;2022-07-06T04:43:09;100590.47;;;13.98;100.00
11041;BME280;5573;49.592;8.662;2022-07-06T04:45:37;100591.66;;;14.00;100.00
11041;BME280;5573;49.592;8.662;2022-07-06T04:48:06;100596.13;;;14.19;100.00
11041;BME280;5573;49.592;8.662;2022-07-06T04:50:36;100595.75;;;14.21;100.00
11041;BME280;5573;49.592;8.662;2022-07-06T04:53:10;100600.50;;;14.24;100.00
11041;BME280;5573;49.592;8.662;2022-07-06T04:55:38;100595.78;;;14.35;100.00
11041;BME280;5573;49.592;8.662;2022-07-06T04:58:06;100593.09;;;14.50;100.00
11041;BME280;5573;49.592;8.662;2022-07-06T05:00:35;100592.81;;;14.66;100.00
11041;BME280;5573;49.592;8.662;2022-07-06T05:03:03;100586.50;;;14.72;100.00
11041;BME280;5573;49.592;8.662;2022-07-06T05:05:32;100588.47;;;14.75;100.00
11041;BME280;5573;49.592;8.662;2022-07-06T05:08:00;100594.78;;;14.72;100.00
11041;BME280;5573;49.592;8.662;2022-07-06T05:10:28;100595.97;;;14.71;100.00
11041;BME280;5573;49.592;8.662;2022-07-06T05:12:57;100596.78;;;14.75;100.00
11041;BME280;5573;49.592;8.662;2022-07-06T05:15:26;100605.13;;;14.82;100.00
11041;BME280;5573;49.592;8.662;2022-07-06T05:17:54;100605.91;;;14.90;100.00
11041;BME280;5573;49.592;8.662;2022-07-06T05:20:23;100611.09;;;14.95;100.00
11041;BME280;5573;49.592;8.662;2022-07-06T05:22:52;100611.13;;;15.10;100.00
11041;BME280;5573;49.592;8.662;2022-07-06T05:25:24;100615.06;;;15.05;100.00
11041;BME280;5573;49.592;8.662;2022-07-06T05:27:52;100614.28;;;15.08;100.00
11041;BME280;5573;49.592;8.662;2022-07-06T05:30:20;100611.13;;;15.13;100.00
11041;BME280;5573;49.592;8.662;2022-07-06T05:32:48;100621.03;;;15.18;100.00
11041;BME280;5573;49.592;8.662;2022-07-06T05:35:16;100624.22;;;15.31;100.00
11041;BME280;5573;49.592;8.662;2022-07-06T05:38:07;100619.47;;;15.42;100.00
11041;BME280;5573;49.592;8.662;2022-07-06T05:40:36;100623.03;;;15.53;100.00
11041;BME280;5573;49.592;8.662;2022-07-06T05:43:04;100623.03;;;15.64;100.00
11041;BME280;5573;49.592;8.662;2022-07-06T05:45:33;100617.13;;;15.58;100.00
11041;BME280;5573;49.592;8.662;2022-07-06T05:48:02;100619.88;;;15.65;100.00
11041;BME280;5573;49.592;8.662;2022-07-06T05:50:48;100624.66;;;15.87;100.00
11041;BME280;5573;49.592;8.662;2022-07-06T05:53:17;100626.22;;;16.09;100.00
11041;BME280;5573;49.592;8.662;2022-07-06T05:55:50;100628.94;;;16.34;100.00
11041;BME280;5573;49.592;8.662;2022-07-06T05:58:19;100584.19;;;16.11;96.96
11041;BME280;5573;49.592;8.662;2022-07-06T06:00:48;100618.56;;;16.42;99.64
11041;BME280;5573;49.592;8.662;2022-07-06T06:03:18;100619.78;;;16.44;100.00
11041;BME280;5573;49.592;8.662;2022-07-06T06:05:48;100620.56;;;16.41;100.00
11041;BME280;5573;49.592;8.662;2022-07-06T06:08:19;100621.72;;;16.44;99.73
11041;BME280;5573;49.592;8.662;2022-07-06T06:10:50;100620.91;;;16.58;99.46
11041;BME280;5573;49.592;8.662;2022-07-06T06:13:20;100629.97;;;16.69;96.40
11041;BME280;5573;49.592;8.662;2022-07-06T06:15:48;100629.16;;;16.86;97.75
11041;BME280;5573;49.592;8.662;2022-07-06T06:18:16;100608.09;;;16.89;92.07
11041;BME280;5573;49.592;8.662;2022-07-06T06:20:46;100622.28;;;17.05;91.12
11041;BME280;5573;49.592;8.662;2022-07-06T06:23:14;100640.63;;;17.52;88.66
11041;BME280;5573;49.592;8.662;2022-07-06T06:25:43;100637.66;;;17.77;84.77
11041;BME280;5573;49.592;8.662;2022-07-06T06:28:11;100642.03;;;17.78;85.14
11041;BME280;5573;49.592;8.662;2022-07-06T06:30:39;100640.84;;;17.75;85.56
11041;BME280;5573;49.592;8.662;2022-07-06T06:33:09;100619.22;;;17.45;84.45
11041;BME280;5573;49.592;8.662;2022-07-06T06:35:38;100641.53;;;17.38;87.73
11041;BME280;5573;49.592;8.662;2022-07-06T06:38:09;100638.41;;;17.28;90.40
11041;BME280;5573;49.592;8.662;2022-07-06T06:40:36;100637.19;;;17.33;89.08
11041;BME280;5573;49.592;8.662;2022-07-06T06:43:06;100641.53;;;17.41;91.26
11041;BME280;5573;49.592;8.662;2022-07-06T06:45:40;100644.09;;;17.66;87.48
11041;BME280;5573;49.592;8.662;2022-07-06T06:48:08;100637.66;;;17.77;88.29
11041;BME280;5573;49.592;8.662;2022-07-06T06:50:42;100638.38;;;17.88;87.27
11041;BME280;5573;49.592;8.662;2022-07-06T06:53:10;100647.53;;;17.88;85.76
11041;BME280;5573;49.592;8.662;2022-07-06T06:55:38;100646.50;;;18.13;81.04
11041;BME280;5573;49.592;8.662;2022-07-06T06:58:07;100647.25;;;18.17;79.86
11041;BME280;5573;49.592;8.662;2022-07-06T07:00:35;100655.03;;;19.02;75.77
11041;BME280;5573;49.592;8.662;2022-07-06T07:03:03;100646.28;;;20.05;68.19
11041;BME280;5573;49.592;8.662;2022-07-06T07:05:30;100641.72;;;20.95;63.73
11041;BME280;5573;49.592;8.662;2022-07-06T07:07:58;100653.91;;;21.74;57.88
11041;BME280;5573;49.592;8.662;2022-07-06T07:10:30;100650.66;;;21.59;55.67
11041;BME280;5573;49.592;8.662;2022-07-06T07:12:58;100616.41;;;22.00;53.52
11041;BME280;5573;49.592;8.662;2022-07-06T07:15:28;100649.50;;;22.64;53.03
11041;BME280;5573;49.592;8.662;2022-07-06T07:17:56;100645.63;;;22.87;51.59
11041;BME280;5573;49.592;8.662;2022-07-06T07:20:24;100637.50;;;23.05;51.00
11041;BME280;5573;49.592;8.662;2022-07-06T07:22:52;100633.66;;;23.25;49.41
11041;BME280;5573;49.592;8.662;2022-07-06T07:25:20;100636.88;;;22.85;50.97
11041;BME280;5573;49.592;8.662;2022-07-06T07:27:48;100633.56;;;23.28;49.16
11041;BME280;5573;49.592;8.662;2022-07-06T07:30:16;100634.78;;;23.27;49.22
11041;BME280;5573;49.592;8.662;2022-07-06T07:32:45;100645.13;;;23.18;49.37
11041;BME280;5573;49.592;8.662;2022-07-06T07:35:13;100645.38;;;23.36;48.91
11041;BME280;5573;49.592;8.662;2022-07-06T07:37:40;100648.59;;;23.60;48.61
11041;BME280;5573;49.592;8.662;2022-07-06T07:40:09;100643.69;;;23.39;47.73
11041;BME280;5573;49.592;8.662;2022-07-06T07:42:36;100646.44;;;23.64;47.83
11041;BME280;5573;49.592;8.662;2022-07-06T07:45:07;100642.88;;;23.64;47.75
11041;BME280;5573;49.592;8.662;2022-07-06T07:47:35;100641.75;;;24.09;46.47
11041;BME280;5573;49.592;8.662;2022-07-06T07:50:06;100624.81;;;24.00;46.58
11041;BME280;5573;49.592;8.662;2022-07-06T07:52:34;100643.66;;;24.12;46.62
11041;BME280;5573;49.592;8.662;2022-07-06T07:55:02;100611.75;;;23.58;46.86
11041;BME280;5573;49.592;8.662;2022-07-06T07:57:50;100638.09;;;23.73;47.50
11041;BME280;5573;49.592;8.662;2022-07-06T08:00:18;100639.03;;;23.83;46.68
11041;BME280;5573;49.592;8.662;2022-07-06T08:02:53;100633.31;;;23.61;48.15
11041;BME280;5573;49.592;8.662;2022-07-06T08:05:23;100641.50;;;23.81;49.11
11041;BME280;5573;49.592;8.662;2022-07-06T08:07:51;100644.97;;;23.72;49.10
11041;BME280;5573;49.592;8.662;2022-07-06T08:10:19;100641.84;;;23.70;46.90
11041;BME280;5573;49.592;8.662;2022-07-06T08:12:47;100639.47;;;23.82;47.17
11041;BME280;5573;49.592;8.662;2022-07-06T08:15:15;100642.78;;;24.02;46.36
11041;BME280;5573;49.592;8.662;2022-07-06T08:17:43;100651.16;;;23.93;45.82
11041;BME280;5573;49.592;8.662;2022-07-06T08:20:12;100632.31;;;23.29;48.37
11041;BME280;5573;49.592;8.662;2022-07-06T08:22:43;100591.19;;;22.59;48.96
11041;BME280;5573;49.592;8.662;2022-07-06T08:25:10;100631.09;;;22.04;50.67
11041;BME280;5573;49.592;8.662;2022-07-06T08:27:39;100634.44;;;21.99;50.84
11041;BME280;5573;49.592;8.662;2022-07-06T08:30:08;100634.94;;;22.10;51.36
11041;BME280;5573;49.592;8.662;2022-07-06T08:32:37;100645.50;;;22.36;49.62
11041;BME280;5573;49.592;8.662;2022-07-06T08:35:25;100647.00;;;22.24;50.54
11041;BME280;5573;49.592;8.662;2022-07-06T08:37:54;100652.66;;;21.91;49.88
11041;BME280;5573;49.592;8.662;2022-07-06T08:40:22;100654.50;;;21.98;51.15
11041;BME280;5573;49.592;8.662;2022-07-06T08:42:53;100648.66;;;22.38;49.48
11041;BME280;5573;49.592;8.662;2022-07-06T08:45:21;100661.59;;;22.48;49.71
11041;BME280;5573;49.592;8.662;2022-07-06T08:47:49;100666.75;;;22.49;49.55
11041;BME280;5573;49.592;8.662;2022-07-06T08:50:18;100663.88;;;22.37;49.63
11041;BME280;5573;49.592;8.662;2022-07-06T08:52:47;100672.09;;;21.82;50.18
11041;BME280;5573;49.592;8.662;2022-07-06T08:55:18;100677.34;;;21.80;50.31
11041;BME280;5573;49.592;8.662;2022-07-06T08:57:47;100662.13;;;21.64;50.65
11041;BME280;5573;49.592;8.662;2022-07-06T09:00:15;100670.16;;;22.11;49.88
11041;BME280;5573;49.592;8.662;2022-07-06T09:02:43;100668.28;;;22.38;49.56
11041;BME280;5573;49.592;8.662;2022-07-06T09:05:14;100668.94;;;22.71;48.20
11041;BME280;5573;49.592;8.662;2022-07-06T09:07:42;100676.34;;;22.65;48.10
11041;BME280;5573;49.592;8.662;2022-07-06T09:10:28;100672.78;;;22.77;47.46
11041;BME280;5573;49.592;8.662;2022-07-06T09:13:04;100676.16;;;22.56;47.28
11041;BME280;5573;49.592;8.662;2022-07-06T09:15:33;100665.03;;;22.68;47.83
11041;BME280;5573;49.592;8.662;2022-07-06T09:18:03;100662.75;;;23.05;48.68
11041;BME280;5573;49.592;8.662;2022-07-06T09:20:32;100655.44;;;23.21;47.19
11041;BME280;5573;49.592;8.662;2022-07-06T09:23:01;100658.59;;;23.36;46.27
11041;BME280;5573;49.592;8.662;2022-07-06T09:25:32;100655.34;;;23.24;46.35
11041;BME280;5573;49.592;8.662;2022-07-06T09:28:01;100653.59;;;22.88;46.34
11041;BME280;5573;49.592;8.662;2022-07-06T09:30:32;100662.59;;;22.96;46.39
11041;BME280;5573;49.592;8.662;2022-07-06T09:33:00;100654.94;;;22.84;46.58
11041;BME280;5573;49.592;8.662;2022-07-06T09:35:30;100655.94;;;22.77;47.10
11041;BME280;5573;49.592;8.662;2022-07-06T09:38:03;100657.31;;;22.85;45.97
11041;BME280;5573;49.592;8.662;2022-07-06T09:40:35;100657.34;;;22.98;45.99
11041;BME280;5573;49.592;8.662;2022-07-06T09:43:11;100654.81;;;22.87;46.33
11041;BME280;5573;49.592;8.662;2022-07-06T09:45:40;100656.47;;;23.40;44.82
11041;BME280;5573;49.592;8.662;2022-07-06T09:48:10;100660.91;;;22.86;45.65
11041;BME280;5573;49.592;8.662;2022-07-06T09:50:39;100659.63;;;22.74;46.17
11041;BME280;5573;49.592;8.662;2022-07-06T09:53:07;100668.88;;;22.45;46.85
11041;BME280;5573;49.592;8.662;2022-07-06T09:55:37;100675.91;;;22.37;47.01
11041;BME280;5573;49.592;8.662;2022-07-06T09:58:05;100660.44;;;22.00;46.68
11041;BME280;5573;49.592;8.662;2022-07-06T10:00:32;100669.47;;;22.07;45.55
11041;BME280;5573;49.592;8.662;2022-07-06T10:03:00;100666.47;;;23.02;46.28
11041;BME280;5573;49.592;8.662;2022-07-06T10:05:29;100662.72;;;23.82;44.24
11041;BME280;5573;49.592;8.662;2022-07-06T10:08:00;100666.28;;;24.08;42.66
11041;BME280;5573;49.592;8.662;2022-07-06T10:10:32;100667.59;;;24.17;43.79
11041;BME280;5573;49.592;8.662;2022-07-06T10:13:02;100661.25;;;23.90;44.22
11041;BME280;5573;49.592;8.662;2022-07-06T10:15:33;100672.78;;;24.05;42.55
11041;BME280;5573;49.592;8.662;2022-07-06T10:18:02;100667.44;;;23.85;43.07
11041;BME280;5573;49.592;8.662;2022-07-06T10:20:32;100668.00;;;23.93;42.18
11041;BME280;5573;49.592;8.662;2022-07-06T10:23:01;100657.44;;;23.97;42.83
11041;BME280;5573;49.592;8.662;2022-07-06T10:25:29;100653.66;;;23.78;41.59
11041;BME280;5573;49.592;8.662;2022-07-06T10:28:00;100659.53;;;24.06;42.45
11041;BME280;5573;49.592;8.662;2022-07-06T10:30:30;100653.63;;;24.48;41.96
11041;BME280;5573;49.592;8.662;2022-07-06T10:32:59;100648.69;;;24.39;41.78
11041;BME280;5573;49.592;8.662;2022-07-06T10:35:27;100650.31;;;24.62;41.10
11041;BME280;5573;49.592;8.662;2022-07-06T10:38:05;100652.41;;;24.71;41.70
11041;BME280;5573;49.592;8.662;2022-07-06T10:40:34;100660.84;;;24.71;40.09
11041;BME280;5573;49.592;8.662;2022-07-06T10:43:20;100659.78;;;24.55;40.36
11041;BME280;5573;49.592;8.662;2022-07-06T10:45:52;100660.00;;;24.26;41.09
11041;BME280;5573;49.592;8.662;2022-07-06T10:48:23;100654.91;;;24.34;40.67
11041;BME280;5573;49.592;8.662;2022-07-06T10:50:53;100654.63;;;23.71;41.77
11041;BME280;5573;49.592;8.662;2022-07-06T10:53:22;100648.00;;;23.91;41.00
11041;BME280;5573;49.592;8.662;2022-07-06T10:55:52;100651.78;;;24.10;40.24
11041;BME280;5573;49.592;8.662;2022-07-06T10:58:38;100657.50;;;24.06;40.94
11041;BME280;5573;49.592;8.662;2022-07-06T11:01:08;100656.09;;;23.89;41.71
11041;BME280;5573;49.592;8.662;2022-07-06T11:03:39;100664.44;;;23.28;41.60
11041;BME280;5573;49.592;8.662;2022-07-06T11:06:10;100650.06;;;23.13;41.93
11041;BME280;5573;49.592;8.662;2022-07-06T11:08:53;100652.66;;;23.33;42.22
11041;BME280;5573;49.592;8.662;2022-07-06T11:11:23;100633.19;;;22.88;40.94
11041;BME280;5573;49.592;8.662;2022-07-06T11:13:53;100654.56;;;23.49;41.81
11041;BME280;5573;49.592;8.662;2022-07-06T11:16:23;100650.31;;;24.05;40.62
11041;BME280;5573;49.592;8.662;2022-07-06T11:19:08;100653.75;;;24.44;39.83
11041;BME280;5573;49.592;8.662;2022-07-06T11:21:39;100654.41;;;24.48;38.99
11041;BME280;5573;49.592;8.662;2022-07-06T11:24:09;100657.63;;;24.60;37.64
11041;BME280;5573;49.592;8.662;2022-07-06T11:26:38;100639.84;;;24.63;37.87
11041;BME280;5573;49.592;8.662;2022-07-06T11:29:07;100648.53;;;24.78;36.99
11041;BME280;5573;49.592;8.662;2022-07-06T11:31:39;100640.50;;;24.67;35.48
11041;BME280;5573;49.592;8.662;2022-07-06T11:34:09;100636.03;;;24.79;34.73
11041;BME280;5573;49.592;8.662;2022-07-06T11:36:38;100630.22;;;24.73;33.59
11041;BME280;5573;49.592;8.662;2022-07-06T11:39:11;100640.34;;;24.92;33.49
11041;BME280;5573;49.592;8.662;2022-07-06T11:41:39;100631.91;;;24.92;33.79
11041;BME280;5573;49.592;8.662;2022-07-06T11:44:15;100629.16;;;25.11;34.31
11041;BME280;5573;49.592;8.662;2022-07-06T11:46:45;100627.09;;;24.71;34.80
11041;BME280;5573;49.592;8.662;2022-07-06T11:49:13;100620.09;;;24.75;33.70
11041;BME280;5573;49.592;8.662;2022-07-06T11:51:41;100624.13;;;25.06;34.72
11041;BME280;5573;49.592;8.662;2022-07-06T11:54:12;100629.25;;;25.29;34.17
11041;BME280;5573;49.592;8.662;2022-07-06T11:56:45;100611.97;;;25.18;33.11
11041;BME280;5573;49.592;8.662;2022-07-06T11:59:14;100627.97;;;25.21;33.18
11041;BME280;5573;49.592;8.662;2022-07-06T12:01:42;100624.25;;;25.24;33.04
11041;BME280;5573;49.592;8.662;2022-07-06T12:04:12;100623.47;;;25.02;33.27
11041;BME280;5573;49.592;8.662;2022-07-06T12:06:43;100622.28;;;25.12;32.79
11041;BME280;5573;49.592;8.662;2022-07-06T12:09:11;100617.28;;;25.16;33.48
11041;BME280;5573;49.592;8.662;2022-07-06T12:11:44;100613.50;;;25.41;33.65
11041;BME280;5573;49.592;8.662;2022-07-06T12:14:14;100602.81;;;25.36;33.52
11041;BME280;5573;49.592;8.662;2022-07-06T12:16:43;100597.91;;;25.18;34.12
11041;BME280;5573;49.592;8.662;2022-07-06T12:19:12;100601.94;;;25.08;33.35
11041;BME280;5573;49.592;8.662;2022-07-06T12:21:46;100600.41;;;25.16;32.75
11041;BME280;5573;49.592;8.662;2022-07-06T12:24:20;100596.72;;;25.28;32.83
11041;BME280;5573;49.592;8.662;2022-07-06T12:26:49;100601.91;;;25.39;32.02
11041;BME280;5573;49.592;8.662;2022-07-06T12:29:17;100595.47;;;25.29;30.21
11041;BME280;5573;49.592;8.662;2022-07-06T12:31:49;100595.53;;;25.16;31.75
11041;BME280;5573;49.592;8.662;2022-07-06T12:34:21;100598.25;;;25.20;33.01
11041;BME280;5573;49.592;8.662;2022-07-06T12:36:50;100599.44;;;25.10;31.92
11041;BME280;5573;49.592;8.662;2022-07-06T12:39:20;100597.41;;;25.10;33.72
11041;BME280;5573;49.592;8.662;2022-07-06T12:41:49;100590.59;;;25.21;31.35
11041;BME280;5573;49.592;8.662;2022-07-06T12:44:19;100584.72;;;25.06;33.31
11041;BME280;5573;49.592;8.662;2022-07-06T12:46:48;100594.44;;;25.54;33.35
11041;BME280;5573;49.592;8.662;2022-07-06T12:49:20;100588.94;;;25.51;32.86
11041;BME280;5573;49.592;8.662;2022-07-06T12:54:29;100592.09;;;25.62;33.54
11041;BME280;5573;49.592;8.662;2022-07-06T12:57:03;100589.00;;;25.88;32.37
11041;BME280;5573;49.592;8.662;2022-07-06T12:59:34;100581.94;;;25.74;32.30
11041;BME280;5573;49.592;8.662;2022-07-06T13:02:03;100583.53;;;26.03;32.48
11041;BME280;5573;49.592;8.662;2022-07-06T13:04:34;100579.59;;;25.91;31.01
11041;BME280;5573;49.592;8.662;2022-07-06T13:07:03;100582.31;;;26.04;31.72
11041;BME280;5573;49.592;8.662;2022-07-06T13:09:34;100575.06;;;26.40;31.91